Time;durP1;ratioP1;P1;durP2;ratioP2;P2;SDS_P1;SDS_P2;PMS_P1;PMS_P2;Temp;Humidity;BMP_temperature;BMP_pressure;BME280_temperature;BME280_humidity;BME280_pressure;Samples;Min_cycle;Max_cycle;Signal;HPM_P1;HPM_P2
2022/10/20 00:00:39;;;;;;;;;;;17.50;89.60;;;;;;4938657;29;19926;-64
2022/10/20 00:03:05;;;;;;;;;;;17.30;89.50;;;;;;4938680;29;19926;-64
2022/10/20 00:05:30;;;;;;;;;;;17.30;89.40;;;;;;4955700;29;20340;-64
2022/10/20 00:07:56;;;;;;;;;;;;;;;;;;4955269;28;19927;-67
2022/10/20 00:10:22;;;;;;;;;;;17.30;89.20;;;;;;4937887;29;20363;-65
2022/10/20 00:12:47;;;;;;;;;;;17.50;89.20;;;;;;4954732;28;19926;-69
2022/10/20 00:15:13;;;;;;;;;;;17.10;89.10;;;;;;4956458;28;20299;-66
2022/10/20 00:17:39;;;;;;;;;;;16.90;89.10;;;;;;4956282;29;19934;-72
2022/10/20 00:20:05;;;;;;;;;;;17.00;89.10;;;;;;4954605;28;19938;-71
2022/10/20 00:22:30;;;;;;;;;;;17.10;89.20;;;;;;4955035;28;19973;-71
2022/10/20 00:24:56;;;;;;;;;;;17.10;89.20;;;;;;4955895;29;19937;-69
2022/10/20 00:27:22;;;;;;;;;;;17.30;89.30;;;;;;4955445;29;20428;-65
2022/10/20 00:29:48;;;;;;;;;;;16.90;89.20;;;;;;4954484;28;19926;-66
2022/10/20 00:32:13;;;;;;;;;;;17.10;89.30;;;;;;4972994;28;19933;-69
2022/10/20 00:34:39;;;;;;;;;;;16.90;89.30;;;;;;4975129;28;19929;-72
2022/10/20 00:37:05;;;;;;;;;;;17.00;89.40;;;;;;4967605;28;20404;-67
2022/10/20 00:39:30;;;;;;;;;;;17.00;89.40;;;;;;4938404;29;19929;-65
2022/10/20 00:41:56;;;;;;;;;;;17.00;89.30;;;;;;4954369;28;20284;-72
2022/10/20 00:44:40;;;;;;;;;;;17.20;89.30;;;;;;4938544;29;19933;-64
2022/10/20 00:47:08;;;;;;;;;;;17.20;89.10;;;;;;4938793;28;20332;-64
2022/10/20 00:49:34;;;;;;;;;;;17.10;89.10;;;;;;4954436;29;19975;-71
2022/10/20 00:52:00;;;;;;;;;;;17.00;88.90;;;;;;4954615;28;20329;-71
2022/10/20 00:54:25;;;;;;;;;;;17.30;89.20;;;;;;4955671;29;19933;-71
2022/10/20 00:56:51;;;;;;;;;;;16.90;89.00;;;;;;4938354;29;19974;-69
2022/10/20 00:59:18;;;;;;;;;;;17.00;89.00;;;;;;4938521;29;20296;-73
2022/10/20 01:01:44;;;;;;;;;;;17.00;89.00;;;;;;4954660;28;19969;-72
2022/10/20 01:04:09;;;;;;;;;;;16.80;89.00;;;;;;4939303;28;19996;-73
2022/10/20 01:06:35;;;;;;;;;;;17.00;89.10;;;;;;4960307;28;20015;-72
2022/10/20 01:09:00;;;;;;;;;;;16.70;88.90;;;;;;4968821;28;19974;-68
2022/10/20 01:11:29;;;;;;;;;;;17.00;89.20;;;;;;4940907;29;20455;-69
2022/10/20 01:13:58;;;;;;;;;;;16.70;89.10;;;;;;4957796;28;19977;-72
2022/10/20 01:16:42;;;;;;;;;;;16.80;89.20;;;;;;4958588;28;19926;-72
2022/10/20 01:19:07;;;;;;;;;;;16.90;89.00;;;;;;4958586;29;19926;-72
2022/10/20 01:21:51;;;;;;;;;;;16.60;88.90;;;;;;4959441;28;19982;-72
2022/10/20 01:24:20;;;;;;;;;;;16.70;89.00;;;;;;4957997;28;19927;-68
2022/10/20 01:27:04;;;;;;;;;;;16.70;89.10;;;;;;4958490;29;19927;-66
2022/10/20 01:29:35;;;;;;;;;;;16.90;89.10;;;;;;4958855;29;19926;-71
2022/10/20 01:32:00;;;;;;;;;;;16.90;89.00;;;;;;4941650;29;19966;-69
2022/10/20 01:34:46;;;;;;;;;;;16.90;88.90;;;;;;4957479;28;19970;-66
2022/10/20 01:37:18;;;;;;;;;;;16.80;88.70;;;;;;4957784;29;19934;-64
2022/10/20 01:39:46;;;;;;;;;;;16.90;88.80;;;;;;4972248;28;19926;-64
2022/10/20 01:42:16;;;;;;;;;;;16.70;88.60;;;;;;4977957;28;20261;-65
2022/10/20 01:44:42;;;;;;;;;;;17.00;88.80;;;;;;4948529;29;19978;-71
2022/10/20 01:47:08;;;;;;;;;;;16.90;88.80;;;;;;4939229;29;20021;-65
2022/10/20 01:49:33;;;;;;;;;;;16.80;88.70;;;;;;4922230;29;19933;-72
2022/10/20 01:51:59;;;;;;;;;;;17.00;88.70;;;;;;4921923;29;20293;-73
2022/10/20 01:54:25;;;;;;;;;;;;;;;;;;4921982;28;19931;-72
2022/10/20 01:57:09;;;;;;;;;;;16.80;88.60;;;;;;4972604;28;20336;-72
2022/10/20 01:59:34;;;;;;;;;;;16.90;88.50;;;;;;4960272;28;19930;-68
2022/10/20 02:02:05;;;;;;;;;;;16.60;88.40;;;;;;4977554;28;19926;-68
2022/10/20 02:04:49;;;;;;;;;;;16.80;88.60;;;;;;4960319;28;19930;-65
2022/10/20 02:07:16;;;;;;;;;;;17.10;88.80;;;;;;4958257;28;19938;-67
2022/10/20 02:09:49;;;;;;;;;;;16.80;88.50;;;;;;4924825;29;19934;-66
2022/10/20 02:12:16;;;;;;;;;;;16.80;88.40;;;;;;4942815;28;19935;-66
2022/10/20 02:14:42;;;;;;;;;;;17.20;88.50;;;;;;4960282;28;19949;-65
2022/10/20 02:17:09;;;;;;;;;;;17.00;88.30;;;;;;4964157;28;19927;-72
2022/10/20 02:19:35;;;;;;;;;;;16.90;88.40;;;;;;4957835;29;19953;-67
2022/10/20 02:22:01;;;;;;;;;;;16.90;88.30;;;;;;4940442;29;19934;-65
2022/10/20 02:24:27;;;;;;;;;;;16.80;88.10;;;;;;4940682;29;19926;-69
2022/10/20 02:26:53;;;;;;;;;;;16.90;88.10;;;;;;4927255;29;19935;-67
2022/10/20 02:29:21;;;;;;;;;;;17.10;88.30;;;;;;4942551;28;19930;-65
2022/10/20 02:31:46;;;;;;;;;;;17.00;88.40;;;;;;4959739;28;19930;-72
2022/10/20 02:34:12;;;;;;;;;;;16.70;88.10;;;;;;4976912;28;19926;-70
2022/10/20 02:36:38;;;;;;;;;;;16.90;88.40;;;;;;4959696;28;19926;-69
2022/10/20 02:39:04;;;;;;;;;;;16.60;88.20;;;;;;4958945;28;20384;-72
2022/10/20 02:41:30;;;;;;;;;;;16.70;88.30;;;;;;4957522;29;19934;-72
2022/10/20 02:43:55;;;;;;;;;;;16.60;88.20;;;;;;4956647;28;19934;-70
2022/10/20 02:46:21;;;;;;;;;;;16.70;88.40;;;;;;4957882;28;20017;-72
2022/10/20 02:48:47;;;;;;;;;;;16.60;88.30;;;;;;4954757;28;19926;-72
2022/10/20 02:51:13;;;;;;;;;;;16.60;88.30;;;;;;4957078;29;19933;-73
2022/10/20 02:53:38;;;;;;;;;;;16.50;88.20;;;;;;4957324;29;19922;-67
2022/10/20 02:56:04;;;;;;;;;;;16.30;88.20;;;;;;4957287;29;19937;-69
2022/10/20 02:58:30;;;;;;;;;;;;;;;;;;4956095;28;19926;-68
2022/10/20 03:00:55;;;;;;;;;;;16.60;88.20;;;;;;4956102;28;19926;-71
2022/10/20 03:03:21;;;;;;;;;;;16.60;88.30;;;;;;4957274;28;20894;-66
2022/10/20 03:05:47;;;;;;;;;;;16.50;88.10;;;;;;4956980;29;19974;-70
2022/10/20 03:08:12;;;;;;;;;;;16.70;88.20;;;;;;4956244;28;20432;-66
2022/10/20 03:10:38;;;;;;;;;;;16.80;88.20;;;;;;4955416;28;19982;-70
2022/10/20 03:13:04;;;;;;;;;;;17.00;88.20;;;;;;4956923;29;19927;-70
2022/10/20 03:15:29;;;;;;;;;;;16.60;87.90;;;;;;4956636;29;19927;-68
2022/10/20 03:17:55;;;;;;;;;;;16.70;87.90;;;;;;4956743;29;19930;-68
2022/10/20 03:20:21;;;;;;;;;;;16.60;87.80;;;;;;4958026;28;19934;-69
2022/10/20 03:22:46;;;;;;;;;;;16.70;87.90;;;;;;4959142;28;19934;-72
2022/10/20 03:25:12;;;;;;;;;;;16.50;87.80;;;;;;4956975;29;20365;-70
2022/10/20 03:27:37;;;;;;;;;;;16.60;87.70;;;;;;4939393;29;19934;-65
2022/10/20 03:30:03;;;;;;;;;;;16.80;87.80;;;;;;4954834;28;20395;-65
2022/10/20 03:32:29;;;;;;;;;;;16.40;87.70;;;;;;4939162;29;20411;-67
2022/10/20 03:34:54;;;;;;;;;;;16.60;87.80;;;;;;4939133;29;19930;-68
2022/10/20 03:37:20;;;;;;;;;;;16.70;87.80;;;;;;4925893;28;19933;-71
2022/10/20 03:39:45;;;;;;;;;;;16.60;87.70;;;;;;4947858;29;20376;-66
2022/10/20 03:42:11;;;;;;;;;;;16.50;87.50;;;;;;4938239;29;19930;-67
2022/10/20 03:44:38;;;;;;;;;;;;;;;;;;4956381;29;20451;-65
2022/10/20 03:47:04;;;;;;;;;;;16.70;87.60;;;;;;4956307;29;19937;-66
2022/10/20 03:49:31;;;;;;;;;;;16.50;87.40;;;;;;4955227;28;20325;-69
2022/10/20 03:51:57;;;;;;;;;;;16.70;87.50;;;;;;4955062;28;20021;-66
2022/10/20 03:54:23;;;;;;;;;;;16.70;87.60;;;;;;4941772;28;19977;-66
2022/10/20 03:56:49;;;;;;;;;;;;;;;;;;4975639;28;19933;-68
2022/10/20 03:59:15;;;;;;;;;;;16.40;87.50;;;;;;4958217;28;19930;-66
2022/10/20 04:01:41;;;;;;;;;;;16.30;87.40;;;;;;4954591;28;19933;-65
2022/10/20 04:04:07;;;;;;;;;;;16.40;87.60;;;;;;4956376;29;19933;-66
2022/10/20 04:06:33;;;;;;;;;;;16.50;87.60;;;;;;4938625;29;20304;-66
2022/10/20 04:08:58;;;;;;;;;;;16.20;87.30;;;;;;4956066;29;19974;-69
2022/10/20 04:11:25;;;;;;;;;;;16.60;87.70;;;;;;4959165;28;19934;-73
2022/10/20 04:13:51;;;;;;;;;;;16.20;87.60;;;;;;4941987;29;19962;-68
2022/10/20 04:16:17;;;;;;;;;;;16.30;87.60;;;;;;4955652;29;19966;-70
2022/10/20 04:18:42;;;;;;;;;;;16.50;87.60;;;;;;4955535;29;20389;-69
2022/10/20 04:21:08;;;;;;;;;;;16.50;87.60;;;;;;4938034;29;20004;-68
2022/10/20 04:23:34;;;;;;;;;;;16.60;87.60;;;;;;4955099;28;19931;-73
2022/10/20 04:25:59;;;;;;;;;;;16.70;87.50;;;;;;4958001;28;20029;-68
2022/10/20 04:28:25;;;;;;;;;;;16.40;87.30;;;;;;4941630;28;19970;-64
2022/10/20 04:30:51;;;;;;;;;;;16.50;87.50;;;;;;4964564;28;19926;-65
2022/10/20 04:33:17;;;;;;;;;;;16.40;87.40;;;;;;4962300;28;19922;-68
2022/10/20 04:35:42;;;;;;;;;;;16.40;87.40;;;;;;4948329;28;19926;-67
2022/10/20 04:38:08;;;;;;;;;;;16.40;87.40;;;;;;4964139;28;19970;-71
2022/10/20 04:40:34;;;;;;;;;;;;;;;;;;4958825;28;19938;-71
2022/10/20 04:43:00;;;;;;;;;;;;;;;;;;4971918;28;20763;-66
2022/10/20 04:45:26;;;;;;;;;;;16.70;87.50;;;;;;4950603;28;19978;-69
2022/10/20 04:47:51;;;;;;;;;;;16.50;87.50;;;;;;4958655;28;20361;-74
2022/10/20 04:50:17;;;;;;;;;;;16.60;87.60;;;;;;4958585;29;19933;-70
2022/10/20 04:52:43;;;;;;;;;;;;;;;;;;4940366;29;19933;-74
2022/10/20 04:55:09;;;;;;;;;;;;;;;;;;4939521;29;20315;-68
2022/10/20 04:57:34;;;;;;;;;;;16.60;87.70;;;;;;4958108;29;19934;-75
2022/10/20 05:00:00;;;;;;;;;;;16.50;87.70;;;;;;4941124;29;20377;-68
2022/10/20 05:02:26;;;;;;;;;;;16.60;87.60;;;;;;4943485;28;19976;-71
2022/10/20 05:04:51;;;;;;;;;;;16.70;87.40;;;;;;4956994;28;19922;-73
2022/10/20 05:07:17;;;;;;;;;;;16.70;87.50;;;;;;4962348;28;19934;-78
2022/10/20 05:09:43;;;;;;;;;;;16.60;87.50;;;;;;4958099;28;20368;-76
2022/10/20 05:12:08;;;;;;;;;;;16.50;87.40;;;;;;4957703;29;20281;-68
2022/10/20 05:14:34;;;;;;;;;;;;;;;;;;4940656;29;19934;-69
2022/10/20 05:20:13;;;;;;;;;;;16.40;87.60;;;;;;4947765;29;19975;-69
2022/10/20 05:22:38;;;;;;;;;;;16.60;87.10;;;;;;4963992;28;20284;-67
2022/10/20 05:25:04;;;;;;;;;;;16.50;87.10;;;;;;4969507;28;19934;-67
2022/10/20 05:27:30;;;;;;;;;;;16.90;87.50;;;;;;4963916;28;19926;-67
2022/10/20 05:30:01;;;;;;;;;;;16.50;87.20;;;;;;4962060;28;19926;-68
2022/10/20 05:32:27;;;;;;;;;;;16.50;86.50;;;;;;4940303;28;20036;-70
2022/10/20 05:34:53;;;;;;;;;;;16.70;87.00;;;;;;4957051;28;20732;-71
2022/10/20 05:37:19;;;;;;;;;;;16.30;86.80;;;;;;4959467;28;19945;-67
2022/10/20 05:39:45;;;;;;;;;;;16.30;86.80;;;;;;4960665;28;19930;-76
2022/10/20 05:42:11;;;;;;;;;;;;;;;;;;4947349;28;19927;-64
2022/10/20 05:44:37;;;;;;;;;;;;;;;;;;4948004;28;19927;-75
2022/10/20 05:47:03;;;;;;;;;;;16.50;86.80;;;;;;4950952;28;20375;-74
2022/10/20 05:49:28;;;;;;;;;;;16.70;86.70;;;;;;4945164;28;19926;-76
2022/10/20 05:51:54;;;;;;;;;;;;;;;;;;4944383;28;19935;-66
2022/10/20 05:54:21;;;;;;;;;;;;;;;;;;4949329;28;20296;-67
2022/10/20 05:56:47;;;;;;;;;;;;;;;;;;4947424;28;19942;-65
2022/10/20 05:59:12;;;;;;;;;;;16.70;86.70;;;;;;4946493;28;19964;-75
2022/10/20 06:01:46;;;;;;;;;;;;;;;;;;4946380;28;19939;-65
2022/10/20 06:04:12;;;;;;;;;;;;;;;;;;4949631;28;19926;-73
2022/10/20 06:06:38;;;;;;;;;;;;;;;;;;4944231;28;19945;-65
2022/10/20 06:09:04;;;;;;;;;;;;;;;;;;4948510;28;19934;-75
2022/10/20 06:11:30;;;;;;;;;;;;;;;;;;4951631;28;19926;-77
2022/10/20 06:13:56;;;;;;;;;;;;;;;;;;4949157;28;19926;-70
2022/10/20 06:16:22;;;;;;;;;;;;;;;;;;4949933;28;19930;-74
2022/10/20 06:18:48;;;;;;;;;;;;;;;;;;4953662;28;19929;-77
2022/10/20 06:21:14;;;;;;;;;;;;;;;;;;4951153;28;20022;-74
2022/10/20 06:23:40;;;;;;;;;;;;;;;;;;4956330;28;20025;-64
2022/10/20 06:26:06;;;;;;;;;;;;;;;;;;4953867;28;19934;-64
2022/10/20 06:28:32;;;;;;;;;;;16.70;86.50;;;;;;4953943;28;19933;-63
2022/10/20 06:30:58;;;;;;;;;;;;;;;;;;4920451;28;19934;-63
2022/10/20 06:33:24;;;;;;;;;;;16.60;86.90;;;;;;4951623;28;19930;-64
2022/10/20 06:35:49;;;;;;;;;;;;;;;;;;4934245;29;19926;-64
2022/10/20 06:38:15;;;;;;;;;;;16.90;87.10;;;;;;4932471;29;20021;-75
2022/10/20 06:40:41;;;;;;;;;;;16.90;87.10;;;;;;4950629;28;20442;-65
2022/10/20 06:43:07;;;;;;;;;;;;;;;;;;4951222;28;19930;-67
2022/10/20 06:45:32;;;;;;;;;;;16.70;87.00;;;;;;4953226;28;19930;-75
2022/10/20 06:47:58;;;;;;;;;;;16.60;86.00;;;;;;4951185;28;20395;-77
2022/10/20 06:50:24;;;;;;;;;;;;;;;;;;4933395;28;19935;-66
2022/10/20 06:52:49;;;;;;;;;;;16.60;87.00;;;;;;4945338;28;19926;-74
2022/10/20 06:55:16;;;;;;;;;;;;;;;;;;4957371;28;20400;-76
2022/10/20 06:57:41;;;;;;;;;;;16.60;86.60;;;;;;4938048;29;19927;-74
2022/10/20 07:00:07;;;;;;;;;;;;;;;;;;4955551;29;19937;-64
2022/10/20 07:02:33;;;;;;;;;;;16.60;86.90;;;;;;4957280;28;19930;-67
2022/10/20 07:04:58;;;;;;;;;;;16.60;86.80;;;;;;4955691;28;20021;-67
2022/10/20 07:07:24;;;;;;;;;;;16.70;86.70;;;;;;4938923;29;19927;-67
2022/10/20 07:09:50;;;;;;;;;;;16.70;86.60;;;;;;4957319;29;20029;-65
2022/10/20 07:12:15;;;;;;;;;;;16.90;86.80;;;;;;4956637;29;19926;-67
2022/10/20 07:14:41;;;;;;;;;;;;;;;;;;4956048;28;19930;-68
2022/10/20 07:17:07;;;;;;;;;;;16.60;86.50;;;;;;4956588;29;20405;-70
2022/10/20 07:19:33;;;;;;;;;;;16.50;86.50;;;;;;4950821;28;21279;-72
2022/10/20 07:21:59;;;;;;;;;;;16.60;86.70;;;;;;4975820;28;19926;-71
2022/10/20 07:24:25;;;;;;;;;;;16.90;86.80;;;;;;4958790;28;19926;-71
2022/10/20 07:26:50;;;;;;;;;;;16.80;86.80;;;;;;4939638;29;19926;-69
2022/10/20 07:29:16;;;;;;;;;;;16.80;86.70;;;;;;4938032;29;19927;-68
2022/10/20 07:31:42;;;;;;;;;;;16.70;86.50;;;;;;4937155;29;19934;-72
2022/10/20 07:34:08;;;;;;;;;;;16.80;86.60;;;;;;4920114;29;19923;-71
2022/10/20 07:36:34;;;;;;;;;;;16.90;86.60;;;;;;4934522;29;19937;-72
2022/10/20 07:39:00;;;;;;;;;;;16.90;86.60;;;;;;4939325;29;20456;-71
2022/10/20 07:41:25;;;;;;;;;;;17.00;86.80;;;;;;4956186;29;20400;-67
2022/10/20 07:43:51;;;;;;;;;;;17.00;86.70;;;;;;4956234;29;19973;-72
2022/10/20 07:46:20;;;;;;;;;;;17.00;86.70;;;;;;4955131;28;19983;-72
2022/10/20 07:48:46;;;;;;;;;;;17.00;86.60;;;;;;4938666;29;19970;-72
2022/10/20 07:51:16;;;;;;;;;;;17.00;86.70;;;;;;4956337;29;19933;-71
2022/10/20 07:53:41;;;;;;;;;;;17.10;86.70;;;;;;4969350;28;19926;-75
2022/10/20 07:56:07;;;;;;;;;;;17.10;86.80;;;;;;4957953;28;20072;-74
2022/10/20 07:58:33;;;;;;;;;;;17.00;86.70;;;;;;4959005;28;20297;-77
2022/10/20 08:00:58;;;;;;;;;;;16.80;86.50;;;;;;4938717;29;19934;-76
2022/10/20 08:03:28;;;;;;;;;;;;;;;;;;4950717;29;19930;-66
2022/10/20 08:05:57;;;;;;;;;;;17.20;86.30;;;;;;4951715;28;19927;-74
2022/10/20 08:08:23;;;;;;;;;;;;;;;;;;4953229;28;19927;-70
2022/10/20 08:10:49;;;;;;;;;;;16.90;86.20;;;;;;4953933;28;20261;-67
2022/10/20 08:13:14;;;;;;;;;;;17.10;86.30;;;;;;4955718;28;19933;-67
2022/10/20 08:15:40;;;;;;;;;;;16.90;86.50;;;;;;4956446;28;19927;-68
2022/10/20 08:18:06;;;;;;;;;;;16.80;86.20;;;;;;4956671;28;20276;-66
2022/10/20 08:20:33;;;;;;;;;;;;;;;;;;4954838;28;19930;-75
2022/10/20 08:22:59;;;;;;;;;;;;;;;;;;4957399;28;19932;-66
2022/10/20 08:25:24;;;;;;;;;;;17.00;86.40;;;;;;4965231;28;19981;-75
2022/10/20 08:27:50;;;;;;;;;;;17.00;86.40;;;;;;4964304;28;19974;-67
2022/10/20 08:30:16;;;;;;;;;;;;;;;;;;4947813;28;19933;-70
2022/10/20 08:32:42;;;;;;;;;;;;;;;;;;4948852;28;19981;-62
2022/10/20 08:35:08;;;;;;;;;;;17.00;86.30;;;;;;4951869;28;19973;-63
2022/10/20 08:37:35;;;;;;;;;;;;;;;;;;4952188;28;19962;-68
2022/10/20 08:40:01;;;;;;;;;;;;;;;;;;4952337;28;19966;-74
2022/10/20 08:42:26;;;;;;;;;;;17.10;86.30;;;;;;4952920;28;19973;-77
2022/10/20 08:44:52;;;;;;;;;;;;;;;;;;4950540;28;20102;-77
2022/10/20 08:47:18;;;;;;;;;;;;;;;;;;4925766;28;19950;-70
2022/10/20 08:49:44;;;;;;;;;;;17.20;86.50;;;;;;4945144;28;19941;-71
2022/10/20 08:52:10;;;;;;;;;;;16.90;86.60;;;;;;4945043;28;19926;-74
2022/10/20 08:54:36;;;;;;;;;;;;;;;;;;4932846;29;19927;-68
2022/10/20 08:57:02;;;;;;;;;;;;;;;;;;4942943;28;19935;-72
2022/10/20 08:59:29;;;;;;;;;;;17.20;86.30;;;;;;4951711;28;20025;-70
2022/10/20 09:01:55;;;;;;;;;;;17.30;86.40;;;;;;4949880;28;19992;-71
2022/10/20 09:04:21;;;;;;;;;;;;;;;;;;4949418;28;19937;-69
2022/10/20 09:06:48;;;;;;;;;;;17.10;86.20;;;;;;4952015;28;19988;-72
2022/10/20 09:09:15;;;;;;;;;;;17.20;86.30;;;;;;4950855;28;19931;-69
2022/10/20 09:11:41;;;;;;;;;;;17.10;86.20;;;;;;4951546;28;20017;-67
2022/10/20 09:14:15;;;;;;;;;;;17.00;86.20;;;;;;4952520;28;20448;-67
2022/10/20 09:16:41;;;;;;;;;;;17.10;85.50;;;;;;4953125;29;20297;-66
2022/10/20 09:19:17;;;;;;;;;;;17.70;86.50;;;;;;4933516;28;19926;-67
2022/10/20 09:21:43;;;;;;;;;;;17.10;86.00;;;;;;4950633;28;20290;-65
2022/10/20 09:24:09;;;;;;;;;;;17.20;86.10;;;;;;4945276;28;19933;-66
2022/10/20 09:26:42;;;;;;;;;;;17.20;86.00;;;;;;4946738;28;20699;-67
2022/10/20 09:29:08;;;;;;;;;;;;;;;;;;4952308;28;19966;-65
2022/10/20 09:31:37;;;;;;;;;;;17.10;85.10;;;;;;4952045;28;20362;-65
2022/10/20 09:34:22;;;;;;;;;;;17.50;85.90;;;;;;4952198;28;19930;-66
2022/10/20 09:36:48;;;;;;;;;;;17.20;85.90;;;;;;4955072;28;19926;-65
2022/10/20 09:39:14;;;;;;;;;;;;;;;;;;4937804;28;20020;-64
2022/10/20 09:41:40;;;;;;;;;;;17.60;86.20;;;;;;4951803;28;19931;-66
2022/10/20 09:44:06;;;;;;;;;;;;;;;;;;4952482;28;19978;-66
2022/10/20 09:46:32;;;;;;;;;;;;;;;;;;4952249;28;19930;-66
2022/10/20 09:48:58;;;;;;;;;;;;;;;;;;4952013;28;19930;-63
2022/10/20 09:51:24;;;;;;;;;;;17.30;85.90;;;;;;4952554;28;19930;-69
2022/10/20 09:53:50;;;;;;;;;;;;;;;;;;4954878;28;19954;-67
2022/10/20 09:56:29;;;;;;;;;;;17.50;86.00;;;;;;4956331;28;19982;-68
2022/10/20 09:58:55;;;;;;;;;;;17.70;85.40;;;;;;4949835;28;20452;-68
2022/10/20 10:01:21;;;;;;;;;;;17.50;85.90;;;;;;4954522;28;19981;-66
2022/10/20 10:03:47;;;;;;;;;;;17.50;86.00;;;;;;4954415;28;19965;-66
2022/10/20 10:06:13;;;;;;;;;;;;;;;;;;4947787;28;19931;-67
2022/10/20 10:08:43;;;;;;;;;;;17.40;85.80;;;;;;4950138;28;19984;-66
2022/10/20 10:11:09;;;;;;;;;;;;;;;;;;4938625;29;20384;-73
2022/10/20 10:13:37;;;;;;;;;;;17.70;86.10;;;;;;4955859;28;20388;-69
2022/10/20 10:16:04;;;;;;;;;;;17.40;85.20;;;;;;4937152;29;20388;-68
2022/10/20 10:18:30;;;;;;;;;;;17.70;85.70;;;;;;4954920;29;19972;-68
2022/10/20 10:20:56;;;;;;;;;;;;;;;;;;4938155;29;19957;-68
2022/10/20 10:23:22;;;;;;;;;;;17.70;86.10;;;;;;4955574;29;19926;-66
2022/10/20 10:25:48;;;;;;;;;;;17.50;85.90;;;;;;4938295;29;19976;-69
2022/10/20 10:28:14;;;;;;;;;;;;;;;;;;4954889;29;19938;-70
2022/10/20 10:30:41;;;;;;;;;;;17.50;85.70;;;;;;4955328;29;19930;-68
2022/10/20 10:33:26;;;;;;;;;;;17.80;86.00;;;;;;4954226;29;19976;-65
2022/10/20 10:35:53;;;;;;;;;;;;;;;;;;4952542;29;20021;-66
2022/10/20 10:38:18;;;;;;;;;;;17.60;85.90;;;;;;4954443;28;19930;-72
2022/10/20 10:40:51;;;;;;;;;;;17.60;86.00;;;;;;4952705;29;19927;-75
2022/10/20 10:43:17;;;;;;;;;;;;;;;;;;4947650;28;19980;-74
2022/10/20 10:45:44;;;;;;;;;;;17.80;86.10;;;;;;4957666;28;20034;-64
2022/10/20 10:48:22;;;;;;;;;;;17.60;86.00;;;;;;4954789;29;19931;-63
2022/10/20 10:50:57;;;;;;;;;;;17.70;86.00;;;;;;4935999;29;19933;-64
2022/10/20 10:53:23;;;;;;;;;;;;;;;;;;4953914;29;19927;-65
2022/10/20 10:55:48;;;;;;;;;;;17.90;86.20;;;;;;4954691;29;20357;-66
2022/10/20 10:58:14;;;;;;;;;;;;;;;;;;4954688;29;19974;-65
2022/10/20 11:00:40;;;;;;;;;;;;;;;;;;4956314;28;19985;-65
2022/10/20 11:03:09;;;;;;;;;;;17.90;85.60;;;;;;4954728;29;19966;-66
2022/10/20 11:05:37;;;;;;;;;;;;;;;;;;4953594;28;19927;-65
2022/10/20 11:08:03;;;;;;;;;;;17.70;85.70;;;;;;4951689;28;19926;-64
2022/10/20 11:11:00;;;;;;;;;;;17.60;85.50;;;;;;4941878;28;19922;-65
2022/10/20 11:13:26;;;;;;;;;;;;;;;;;;4930903;28;19934;-71
2022/10/20 11:15:52;;;;;;;;;;;;;;;;;;4937202;28;19931;-65
2022/10/20 11:18:18;;;;;;;;;;;;;;;;;;4940575;28;19931;-67
2022/10/20 11:20:43;;;;;;;;;;;17.30;86.30;;;;;;4936685;28;19933;-64
2022/10/20 11:23:18;;;;;;;;;;;17.40;86.40;;;;;;4941934;28;19926;-73
2022/10/20 11:25:54;;;;;;;;;;;17.40;86.80;;;;;;4922660;28;19966;-67
2022/10/20 11:28:28;;;;;;;;;;;17.20;86.60;;;;;;4906271;28;19933;-68
2022/10/20 11:30:55;;;;;;;;;;;17.40;86.80;;;;;;4934487;28;20049;-64
2022/10/20 11:33:21;;;;;;;;;;;;;;;;;;4949333;28;20016;-65
2022/10/20 11:35:51;;;;;;;;;;;17.40;87.10;;;;;;4942202;28;20002;-65
2022/10/20 11:38:30;;;;;;;;;;;17.40;86.90;;;;;;4949327;28;19934;-65
2022/10/20 11:40:58;;;;;;;;;;;17.10;87.30;;;;;;4950914;28;20012;-65
2022/10/20 11:43:24;;;;;;;;;;;17.00;87.10;;;;;;4951025;28;20396;-73
2022/10/20 11:45:51;;;;;;;;;;;17.30;87.30;;;;;;4944821;28;19926;-64
2022/10/20 11:48:35;;;;;;;;;;;17.30;87.80;;;;;;4947645;28;19926;-71
2022/10/20 11:51:24;;;;;;;;;;;17.40;87.80;;;;;;4962708;28;19926;-67
2022/10/20 11:53:53;;;;;;;;;;;17.40;88.00;;;;;;4923072;29;19931;-68
2022/10/20 11:56:37;;;;;;;;;;;17.50;87.90;;;;;;4923087;29;19931;-65
2022/10/20 11:59:17;;;;;;;;;;;17.30;87.80;;;;;;4923064;29;20397;-67
2022/10/20 12:01:55;;;;;;;;;;;17.30;87.70;;;;;;4907339;29;20170;-71
2022/10/20 12:04:21;;;;;;;;;;;17.70;87.90;;;;;;4920463;29;20296;-66
2022/10/20 12:06:46;;;;;;;;;;;18.00;88.00;;;;;;4922258;29;20019;-75
2022/10/20 12:09:21;;;;;;;;;;;17.60;87.90;;;;;;4932611;29;19927;-79
2022/10/20 12:11:55;;;;;;;;;;;17.70;87.80;;;;;;4935443;29;19934;-79
2022/10/20 12:14:25;;;;;;;;;;;17.90;87.80;;;;;;4934699;29;19958;-77
2022/10/20 12:16:50;;;;;;;;;;;17.80;87.50;;;;;;4903256;29;19970;-69
2022/10/20 12:19:17;;;;;;;;;;;17.90;87.40;;;;;;4934500;29;20411;-74
2022/10/20 12:22:01;;;;;;;;;;;17.70;87.30;;;;;;4902944;29;19974;-75
2022/10/20 12:24:36;;;;;;;;;;;17.80;87.50;;;;;;4917990;29;19934;-68
2022/10/20 12:27:04;;;;;;;;;;;17.70;87.50;;;;;;4917987;29;19927;-68
2022/10/20 12:29:30;;;;;;;;;;;17.90;87.70;;;;;;4899665;29;20018;-68
2022/10/20 12:32:15;;;;;;;;;;;18.00;87.70;;;;;;4954352;29;20062;-68
2022/10/20 12:34:40;;;;;;;;;;;18.00;87.70;;;;;;4955489;29;19951;-73
2022/10/20 12:37:07;;;;;;;;;;;18.10;87.80;;;;;;4922569;29;19927;-74
2022/10/20 12:39:33;;;;;;;;;;;;;;;;;;4921884;29;19994;-69
2022/10/20 12:41:59;;;;;;;;;;;17.70;87.60;;;;;;4961691;28;20299;-68
2022/10/20 12:44:25;;;;;;;;;;;17.90;87.70;;;;;;4974858;28;19926;-68
2022/10/20 12:46:57;;;;;;;;;;;18.00;87.80;;;;;;4940812;29;19933;-68
2022/10/20 12:49:25;;;;;;;;;;;17.60;87.60;;;;;;4938181;29;20388;-78
2022/10/20 12:51:51;;;;;;;;;;;17.80;87.80;;;;;;4938107;29;20471;-78
2022/10/20 12:54:16;;;;;;;;;;;17.80;87.80;;;;;;4938553;29;19965;-80
2022/10/20 12:56:42;;;;;;;;;;;17.40;87.60;;;;;;4938245;29;20393;-67
2022/10/20 12:59:20;;;;;;;;;;;17.60;87.80;;;;;;4938401;29;19926;-67
2022/10/20 13:02:04;;;;;;;;;;;17.90;88.00;;;;;;4957018;28;19926;-68
2022/10/20 13:04:48;;;;;;;;;;;17.60;87.90;;;;;;4958924;29;20407;-66
2022/10/20 13:07:14;;;;;;;;;;;17.70;88.10;;;;;;4941890;29;20299;-68
2022/10/20 13:09:58;;;;;;;;;;;17.80;88.10;;;;;;4925961;29;20013;-68
2022/10/20 13:12:25;;;;;;;;;;;17.90;88.30;;;;;;4958949;29;20029;-74
2022/10/20 13:14:52;;;;;;;;;;;17.60;88.10;;;;;;4959353;29;19933;-68
2022/10/20 13:17:19;;;;;;;;;;;17.70;88.20;;;;;;4957334;28;19927;-67
2022/10/20 13:19:46;;;;;;;;;;;17.80;88.20;;;;;;4941684;29;19974;-66
2022/10/20 13:22:27;;;;;;;;;;;17.60;88.20;;;;;;4957280;29;19927;-67
2022/10/20 13:24:52;;;;;;;;;;;17.80;88.40;;;;;;4958719;29;19934;-68
2022/10/20 13:27:18;;;;;;;;;;;17.60;88.40;;;;;;4957754;29;19926;-67
2022/10/20 13:29:44;;;;;;;;;;;17.50;88.40;;;;;;4959411;29;20372;-67
2022/10/20 13:32:24;;;;;;;;;;;17.60;88.50;;;;;;4941780;28;20380;-67
2022/10/20 13:35:08;;;;;;;;;;;17.60;88.60;;;;;;4941375;29;19926;-68
2022/10/20 13:37:34;;;;;;;;;;;;;;;;;;4956797;29;19930;-68
2022/10/20 13:40:20;;;;;;;;;;;17.70;88.80;;;;;;4958163;29;19926;-80
2022/10/20 13:43:05;;;;;;;;;;;17.60;88.90;;;;;;4940351;29;20311;-75
2022/10/20 13:45:49;;;;;;;;;;;17.70;89.00;;;;;;4958323;29;19926;-67
2022/10/20 13:48:23;;;;;;;;;;;17.60;89.10;;;;;;4958233;29;20303;-67
2022/10/20 13:50:53;;;;;;;;;;;17.80;89.30;;;;;;4958816;28;19980;-68
2022/10/20 13:53:21;;;;;;;;;;;17.70;89.30;;;;;;4940047;29;19926;-79
2022/10/20 13:55:58;;;;;;;;;;;17.50;89.30;;;;;;4941424;29;20017;-67
2022/10/20 13:58:26;;;;;;;;;;;17.60;89.50;;;;;;4957086;29;19930;-79
2022/10/20 14:01:00;;;;;;;;;;;17.60;89.50;;;;;;4925126;29;19959;-68
2022/10/20 14:03:26;;;;;;;;;;;17.50;89.50;;;;;;4925043;29;19926;-67
2022/10/20 14:05:53;;;;;;;;;;;17.50;89.60;;;;;;4940478;29;20005;-67
2022/10/20 14:08:19;;;;;;;;;;;;;;;;;;4958812;28;19926;-64
2022/10/20 14:10:49;;;;;;;;;;;17.70;89.90;;;;;;4957653;29;19933;-67
2022/10/20 14:13:16;;;;;;;;;;;17.60;89.90;;;;;;4939410;29;19933;-67
2022/10/20 14:15:50;;;;;;;;;;;17.50;90.10;;;;;;4924643;29;19986;-67
2022/10/20 14:18:25;;;;;;;;;;;17.30;90.30;;;;;;4940394;29;19926;-66
2022/10/20 14:20:55;;;;;;;;;;;17.40;90.40;;;;;;4955699;29;19927;-68
2022/10/20 14:23:21;;;;;;;;;;;17.60;90.50;;;;;;4958414;28;20021;-73
2022/10/20 14:25:47;;;;;;;;;;;17.60;90.50;;;;;;4956960;29;19966;-71
2022/10/20 14:28:13;;;;;;;;;;;17.40;90.60;;;;;;4939636;29;19927;-66
2022/10/20 14:30:38;;;;;;;;;;;17.30;90.60;;;;;;4939537;29;20020;-67
2022/10/20 14:33:05;;;;;;;;;;;17.50;90.70;;;;;;4938821;29;20295;-66
2022/10/20 14:35:31;;;;;;;;;;;17.40;90.70;;;;;;4943204;28;20364;-73
2022/10/20 14:37:58;;;;;;;;;;;17.50;90.80;;;;;;4931387;28;19926;-68
2022/10/20 14:40:33;;;;;;;;;;;17.50;90.50;;;;;;4959602;28;20367;-64
2022/10/20 14:42:59;;;;;;;;;;;;;;;;;;4932072;28;19985;-66
2022/10/20 14:45:25;;;;;;;;;;;17.50;90.90;;;;;;4949773;28;19982;-64
2022/10/20 14:47:54;;;;;;;;;;;17.40;90.70;;;;;;4947165;28;19930;-69
2022/10/20 14:50:20;;;;;;;;;;;;;;;;;;4965188;28;19936;-65